Terminal Aerodrome Forecast
Issued by NWS

Home | Current Version | Previous Version | Text Only | Print | Product List | Glossary On
Versions: 1 2 3 4 5 6 7 8 9 10 11 12 13 14 15 16 17
000
FTUS44 KLZK 252300
TAFLLQ
TAF
KLLQ 252331Z 2600/2624 13010KT P6SM VCTS BKN050CB
      TEMPO 2603/2607 VRB20G45KT 2SM TSRA BR OVC015CB
     FM260700 15010KT 5SM SHRA BR OVC025
     FM261000 18009KT 5SM BR OVC015
     FM261500 20008KT P6SM BKN025
     FM262100 24007KT P6SM SCT250=

USA.gov is the U.S. government's official web portal to all federal, state and local government web resources and services.